sensor_id;sensor_type;location;lat;lon;timestamp;P1;durP1;ratioP1;P2;durP2;ratioP2
13435;SDS011;6790;49.520;8.504;2023-09-07T00:01:49;12.93;;;12.03;;
13435;SDS011;6790;49.520;8.504;2023-09-07T00:04:17;11.63;;;10.73;;
13435;SDS011;6790;49.520;8.504;2023-09-07T00:06:44;13.43;;;12.57;;
13435;SDS011;6790;49.520;8.504;2023-09-07T00:09:10;16.13;;;15.13;;
13435;SDS011;6790;49.520;8.504;2023-09-07T00:11:37;15.43;;;14.40;;
13435;SDS011;6790;49.520;8.504;2023-09-07T00:14:03;14.20;;;13.13;;
13435;SDS011;6790;49.520;8.504;2023-09-07T00:16:31;15.40;;;14.33;;
13435;SDS011;6790;49.520;8.504;2023-09-07T00:19:00;13.13;;;12.23;;
13435;SDS011;6790;49.520;8.504;2023-09-07T00:21:28;17.30;;;16.20;;
13435;SDS011;6790;49.520;8.504;2023-09-07T00:23:53;13.40;;;12.47;;
13435;SDS011;6790;49.520;8.504;2023-09-07T00:26:20;13.97;;;13.13;;
13435;SDS011;6790;49.520;8.504;2023-09-07T00:28:46;16.07;;;14.97;;
13435;SDS011;6790;49.520;8.504;2023-09-07T00:31:12;13.50;;;12.63;;
13435;SDS011;6790;49.520;8.504;2023-09-07T00:33:37;17.50;;;16.40;;
13435;SDS011;6790;49.520;8.504;2023-09-07T00:36:06;14.73;;;13.60;;
13435;SDS011;6790;49.520;8.504;2023-09-07T00:38:31;17.33;;;16.23;;
13435;SDS011;6790;49.520;8.504;2023-09-07T00:40:57;17.13;;;15.93;;
13435;SDS011;6790;49.520;8.504;2023-09-07T00:43:23;17.33;;;16.23;;
13435;SDS011;6790;49.520;8.504;2023-09-07T00:45:48;17.17;;;15.97;;
13435;SDS011;6790;49.520;8.504;2023-09-07T00:48:15;17.80;;;16.73;;
13435;SDS011;6790;49.520;8.504;2023-09-07T00:50:41;15.77;;;14.80;;
13435;SDS011;6790;49.520;8.504;2023-09-07T00:53:08;18.87;;;17.70;;
13435;SDS011;6790;49.520;8.504;2023-09-07T00:55:35;19.00;;;17.80;;
13435;SDS011;6790;49.520;8.504;2023-09-07T00:58:02;20.73;;;19.57;;
13435;SDS011;6790;49.520;8.504;2023-09-07T01:00:29;17.70;;;16.53;;
13435;SDS011;6790;49.520;8.504;2023-09-07T01:02:55;17.23;;;16.17;;
13435;SDS011;6790;49.520;8.504;2023-09-07T01:05:21;14.63;;;13.70;;
13435;SDS011;6790;49.520;8.504;2023-09-07T01:07:57;13.73;;;12.80;;
13435;SDS011;6790;49.520;8.504;2023-09-07T01:10:30;18.60;;;17.43;;
13435;SDS011;6790;49.520;8.504;2023-09-07T01:12:56;14.07;;;13.17;;
13435;SDS011;6790;49.520;8.504;2023-09-07T01:15:22;13.50;;;12.63;;
13435;SDS011;6790;49.520;8.504;2023-09-07T01:17:47;16.33;;;15.37;;
13435;SDS011;6790;49.520;8.504;2023-09-07T01:20:13;14.20;;;13.30;;
13435;SDS011;6790;49.520;8.504;2023-09-07T01:22:41;17.37;;;16.17;;
13435;SDS011;6790;49.520;8.504;2023-09-07T01:25:08;13.47;;;12.37;;
13435;SDS011;6790;49.520;8.504;2023-09-07T01:27:34;17.63;;;16.40;;
13435;SDS011;6790;49.520;8.504;2023-09-07T01:30:01;17.07;;;16.03;;
13435;SDS011;6790;49.520;8.504;2023-09-07T01:32:28;19.97;;;18.77;;
13435;SDS011;6790;49.520;8.504;2023-09-07T01:34:57;16.23;;;15.23;;
13435;SDS011;6790;49.520;8.504;2023-09-07T01:37:23;15.20;;;14.20;;
13435;SDS011;6790;49.520;8.504;2023-09-07T01:39:49;17.53;;;16.50;;
13435;SDS011;6790;49.520;8.504;2023-09-07T01:42:15;15.87;;;14.77;;
13435;SDS011;6790;49.520;8.504;2023-09-07T01:44:40;17.77;;;16.63;;
13435;SDS011;6790;49.520;8.504;2023-09-07T01:47:08;17.73;;;16.50;;
13435;SDS011;6790;49.520;8.504;2023-09-07T01:49:33;17.20;;;16.10;;
13435;SDS011;6790;49.520;8.504;2023-09-07T01:51:59;17.67;;;16.57;;
13435;SDS011;6790;49.520;8.504;2023-09-07T01:54:25;15.90;;;14.73;;
13435;SDS011;6790;49.520;8.504;2023-09-07T01:56:50;18.93;;;17.73;;
13435;SDS011;6790;49.520;8.504;2023-09-07T01:59:16;16.73;;;15.53;;
13435;SDS011;6790;49.520;8.504;2023-09-07T02:01:42;17.17;;;16.03;;
13435;SDS011;6790;49.520;8.504;2023-09-07T02:04:07;14.17;;;13.27;;
13435;SDS011;6790;49.520;8.504;2023-09-07T02:06:33;15.63;;;14.63;;
13435;SDS011;6790;49.520;8.504;2023-09-07T02:08:59;14.07;;;13.03;;
13435;SDS011;6790;49.520;8.504;2023-09-07T02:11:24;17.30;;;16.27;;
13435;SDS011;6790;49.520;8.504;2023-09-07T02:13:50;19.67;;;18.40;;
13435;SDS011;6790;49.520;8.504;2023-09-07T02:16:16;16.73;;;15.73;;
13435;SDS011;6790;49.520;8.504;2023-09-07T02:18:43;16.83;;;15.83;;
13435;SDS011;6790;49.520;8.504;2023-09-07T02:21:11;18.93;;;17.80;;
13435;SDS011;6790;49.520;8.504;2023-09-07T02:23:37;18.33;;;17.17;;
13435;SDS011;6790;49.520;8.504;2023-09-07T02:26:03;17.53;;;16.43;;
13435;SDS011;6790;49.520;8.504;2023-09-07T02:28:29;16.93;;;15.80;;
13435;SDS011;6790;49.520;8.504;2023-09-07T02:31:01;14.73;;;13.83;;
13435;SDS011;6790;49.520;8.504;2023-09-07T02:33:28;16.50;;;15.47;;
13435;SDS011;6790;49.520;8.504;2023-09-07T02:35:54;22.00;;;20.67;;
13435;SDS011;6790;49.520;8.504;2023-09-07T02:38:19;20.70;;;19.40;;
13435;SDS011;6790;49.520;8.504;2023-09-07T02:40:45;21.97;;;20.57;;
13435;SDS011;6790;49.520;8.504;2023-09-07T02:43:11;19.07;;;17.90;;
13435;SDS011;6790;49.520;8.504;2023-09-07T02:45:37;17.80;;;16.63;;
13435;SDS011;6790;49.520;8.504;2023-09-07T02:48:04;20.77;;;19.47;;
13435;SDS011;6790;49.520;8.504;2023-09-07T02:50:32;18.73;;;17.43;;
13435;SDS011;6790;49.520;8.504;2023-09-07T02:52:59;16.90;;;15.87;;
13435;SDS011;6790;49.520;8.504;2023-09-07T02:55:28;18.40;;;17.20;;
13435;SDS011;6790;49.520;8.504;2023-09-07T02:57:56;16.33;;;15.30;;
13435;SDS011;6790;49.520;8.504;2023-09-07T03:00:22;15.30;;;14.30;;
13435;SDS011;6790;49.520;8.504;2023-09-07T03:02:48;18.90;;;17.70;;
13435;SDS011;6790;49.520;8.504;2023-09-07T03:05:15;19.87;;;18.67;;
13435;SDS011;6790;49.520;8.504;2023-09-07T03:07:41;18.67;;;17.50;;
13435;SDS011;6790;49.520;8.504;2023-09-07T03:10:07;15.70;;;14.70;;
13435;SDS011;6790;49.520;8.504;2023-09-07T03:12:33;19.73;;;18.57;;
13435;SDS011;6790;49.520;8.504;2023-09-07T03:14:59;19.80;;;18.40;;
13435;SDS011;6790;49.520;8.504;2023-09-07T03:17:28;19.40;;;17.90;;
13435;SDS011;6790;49.520;8.504;2023-09-07T03:19:54;15.17;;;14.27;;
13435;SDS011;6790;49.520;8.504;2023-09-07T03:22:20;19.60;;;18.40;;
13435;SDS011;6790;49.520;8.504;2023-09-07T03:24:46;21.20;;;19.70;;
13435;SDS011;6790;49.520;8.504;2023-09-07T03:27:12;20.30;;;19.03;;
13435;SDS011;6790;49.520;8.504;2023-09-07T03:29:37;20.10;;;18.70;;
13435;SDS011;6790;49.520;8.504;2023-09-07T03:32:04;20.47;;;19.10;;
13435;SDS011;6790;49.520;8.504;2023-09-07T03:34:31;17.00;;;15.80;;
13435;SDS011;6790;49.520;8.504;2023-09-07T03:36:56;23.57;;;22.10;;
13435;SDS011;6790;49.520;8.504;2023-09-07T03:39:22;18.33;;;16.93;;
13435;SDS011;6790;49.520;8.504;2023-09-07T03:41:48;22.77;;;21.13;;
13435;SDS011;6790;49.520;8.504;2023-09-07T03:44:13;22.47;;;20.83;;
13435;SDS011;6790;49.520;8.504;2023-09-07T03:46:39;17.20;;;16.10;;
13435;SDS011;6790;49.520;8.504;2023-09-07T03:49:05;16.30;;;15.20;;
13435;SDS011;6790;49.520;8.504;2023-09-07T03:51:30;19.20;;;17.83;;
13435;SDS011;6790;49.520;8.504;2023-09-07T03:53:56;21.83;;;20.40;;
13435;SDS011;6790;49.520;8.504;2023-09-07T03:56:22;19.33;;;18.10;;
13435;SDS011;6790;49.520;8.504;2023-09-07T03:58:48;21.50;;;20.20;;
13435;SDS011;6790;49.520;8.504;2023-09-07T04:01:14;21.40;;;20.07;;
13435;SDS011;6790;49.520;8.504;2023-09-07T04:03:40;17.17;;;15.87;;
13435;SDS011;6790;49.520;8.504;2023-09-07T04:06:06;17.80;;;16.47;;
13435;SDS011;6790;49.520;8.504;2023-09-07T04:08:32;23.60;;;22.07;;
13435;SDS011;6790;49.520;8.504;2023-09-07T04:11:02;21.37;;;19.77;;
13435;SDS011;6790;49.520;8.504;2023-09-07T04:13:29;21.47;;;19.73;;
13435;SDS011;6790;49.520;8.504;2023-09-07T04:15:55;22.80;;;21.17;;
13435;SDS011;6790;49.520;8.504;2023-09-07T04:18:21;23.67;;;21.90;;
13435;SDS011;6790;49.520;8.504;2023-09-07T04:20:46;22.00;;;20.30;;
13435;SDS011;6790;49.520;8.504;2023-09-07T04:23:12;18.47;;;17.17;;
13435;SDS011;6790;49.520;8.504;2023-09-07T04:25:38;16.77;;;15.57;;
13435;SDS011;6790;49.520;8.504;2023-09-07T04:28:04;18.93;;;17.67;;
13435;SDS011;6790;49.520;8.504;2023-09-07T04:30:30;18.27;;;16.80;;
13435;SDS011;6790;49.520;8.504;2023-09-07T04:32:57;22.07;;;20.63;;
13435;SDS011;6790;49.520;8.504;2023-09-07T04:35:28;22.33;;;20.83;;
13435;SDS011;6790;49.520;8.504;2023-09-07T04:37:55;14.97;;;13.87;;
13435;SDS011;6790;49.520;8.504;2023-09-07T04:40:21;19.97;;;18.37;;
13435;SDS011;6790;49.520;8.504;2023-09-07T04:42:48;19.67;;;18.37;;
13435;SDS011;6790;49.520;8.504;2023-09-07T04:45:14;16.53;;;15.33;;
13435;SDS011;6790;49.520;8.504;2023-09-07T04:47:40;22.17;;;20.60;;
13435;SDS011;6790;49.520;8.504;2023-09-07T04:50:08;19.77;;;18.50;;
13435;SDS011;6790;49.520;8.504;2023-09-07T04:52:35;21.43;;;20.00;;
13435;SDS011;6790;49.520;8.504;2023-09-07T04:55:01;21.70;;;20.30;;
13435;SDS011;6790;49.520;8.504;2023-09-07T04:57:27;21.87;;;20.17;;
13435;SDS011;6790;49.520;8.504;2023-09-07T04:59:55;21.60;;;20.30;;
13435;SDS011;6790;49.520;8.504;2023-09-07T05:02:21;16.60;;;15.37;;
13435;SDS011;6790;49.520;8.504;2023-09-07T05:04:46;21.33;;;19.83;;
13435;SDS011;6790;49.520;8.504;2023-09-07T05:07:12;21.47;;;20.10;;
13435;SDS011;6790;49.520;8.504;2023-09-07T05:09:38;21.40;;;19.87;;
13435;SDS011;6790;49.520;8.504;2023-09-07T05:12:03;18.27;;;17.00;;
13435;SDS011;6790;49.520;8.504;2023-09-07T05:14:29;18.17;;;16.87;;
13435;SDS011;6790;49.520;8.504;2023-09-07T05:16:55;18.67;;;17.17;;
13435;SDS011;6790;49.520;8.504;2023-09-07T05:19:21;18.40;;;17.20;;
13435;SDS011;6790;49.520;8.504;2023-09-07T05:21:47;19.10;;;17.77;;
13435;SDS011;6790;49.520;8.504;2023-09-07T05:24:13;24.90;;;23.23;;
13435;SDS011;6790;49.520;8.504;2023-09-07T05:26:41;18.57;;;17.00;;
13435;SDS011;6790;49.520;8.504;2023-09-07T05:29:07;19.57;;;18.13;;
13435;SDS011;6790;49.520;8.504;2023-09-07T05:31:33;20.83;;;19.43;;
13435;SDS011;6790;49.520;8.504;2023-09-07T05:33:58;21.60;;;20.07;;
13435;SDS011;6790;49.520;8.504;2023-09-07T05:36:26;19.87;;;18.27;;
13435;SDS011;6790;49.520;8.504;2023-09-07T05:38:52;19.20;;;17.70;;
13435;SDS011;6790;49.520;8.504;2023-09-07T05:41:18;18.43;;;17.03;;
13435;SDS011;6790;49.520;8.504;2023-09-07T05:43:44;32.30;;;28.80;;
13435;SDS011;6790;49.520;8.504;2023-09-07T05:46:10;30.50;;;27.40;;
13435;SDS011;6790;49.520;8.504;2023-09-07T05:48:35;26.33;;;23.93;;
13435;SDS011;6790;49.520;8.504;2023-09-07T05:51:01;22.10;;;20.20;;
13435;SDS011;6790;49.520;8.504;2023-09-07T05:53:27;21.47;;;19.57;;
13435;SDS011;6790;49.520;8.504;2023-09-07T05:55:52;20.23;;;18.63;;
13435;SDS011;6790;49.520;8.504;2023-09-07T05:58:18;19.13;;;17.40;;
13435;SDS011;6790;49.520;8.504;2023-09-07T06:00:44;24.50;;;22.67;;
13435;SDS011;6790;49.520;8.504;2023-09-07T06:03:10;20.10;;;18.20;;
13435;SDS011;6790;49.520;8.504;2023-09-07T06:05:42;24.80;;;22.90;;
13435;SDS011;6790;49.520;8.504;2023-09-07T06:08:09;20.47;;;19.17;;
13435;SDS011;6790;49.520;8.504;2023-09-07T06:10:35;21.10;;;19.77;;
13435;SDS011;6790;49.520;8.504;2023-09-07T06:13:00;19.97;;;18.67;;
13435;SDS011;6790;49.520;8.504;2023-09-07T06:15:27;22.43;;;20.90;;
13435;SDS011;6790;49.520;8.504;2023-09-07T06:17:53;22.73;;;21.13;;
13435;SDS011;6790;49.520;8.504;2023-09-07T06:20:19;17.30;;;16.10;;
13435;SDS011;6790;49.520;8.504;2023-09-07T06:22:45;20.77;;;19.47;;
13435;SDS011;6790;49.520;8.504;2023-09-07T06:25:11;15.53;;;14.43;;
13435;SDS011;6790;49.520;8.504;2023-09-07T06:27:37;17.73;;;16.57;;
13435;SDS011;6790;49.520;8.504;2023-09-07T06:30:03;21.90;;;20.47;;
13435;SDS011;6790;49.520;8.504;2023-09-07T06:32:31;15.97;;;14.67;;
13435;SDS011;6790;49.520;8.504;2023-09-07T06:34:57;20.03;;;18.63;;
13435;SDS011;6790;49.520;8.504;2023-09-07T06:37:23;20.77;;;19.37;;
13435;SDS011;6790;49.520;8.504;2023-09-07T06:39:49;20.90;;;19.20;;
13435;SDS011;6790;49.520;8.504;2023-09-07T06:42:15;22.03;;;20.20;;
13435;SDS011;6790;49.520;8.504;2023-09-07T06:44:41;17.20;;;15.93;;
13435;SDS011;6790;49.520;8.504;2023-09-07T06:47:07;18.77;;;17.53;;
13435;SDS011;6790;49.520;8.504;2023-09-07T06:49:33;16.70;;;15.47;;
13435;SDS011;6790;49.520;8.504;2023-09-07T06:51:59;20.17;;;18.70;;
13435;SDS011;6790;49.520;8.504;2023-09-07T06:54:34;14.77;;;13.67;;
13435;SDS011;6790;49.520;8.504;2023-09-07T06:57:26;17.50;;;16.43;;
13435;SDS011;6790;49.520;8.504;2023-09-07T06:59:52;20.40;;;18.90;;
13435;SDS011;6790;49.520;8.504;2023-09-07T07:02:18;16.40;;;15.23;;
13435;SDS011;6790;49.520;8.504;2023-09-07T07:04:44;18.07;;;16.83;;
13435;SDS011;6790;49.520;8.504;2023-09-07T07:07:11;18.07;;;16.80;;
13435;SDS011;6790;49.520;8.504;2023-09-07T07:09:37;18.37;;;17.07;;
13435;SDS011;6790;49.520;8.504;2023-09-07T07:12:02;28.90;;;25.87;;
13435;SDS011;6790;49.520;8.504;2023-09-07T07:14:29;19.27;;;17.47;;
13435;SDS011;6790;49.520;8.504;2023-09-07T07:16:54;21.33;;;19.23;;
13435;SDS011;6790;49.520;8.504;2023-09-07T07:19:20;18.27;;;16.97;;
13435;SDS011;6790;49.520;8.504;2023-09-07T07:21:46;19.97;;;18.63;;
13435;SDS011;6790;49.520;8.504;2023-09-07T07:24:11;15.87;;;14.70;;
13435;SDS011;6790;49.520;8.504;2023-09-07T07:26:37;17.20;;;16.07;;
13435;SDS011;6790;49.520;8.504;2023-09-07T07:29:03;18.33;;;16.73;;
13435;SDS011;6790;49.520;8.504;2023-09-07T07:31:28;33.97;;;28.23;;
13435;SDS011;6790;49.520;8.504;2023-09-07T07:33:54;16.23;;;14.87;;
13435;SDS011;6790;49.520;8.504;2023-09-07T07:36:20;15.50;;;14.27;;
13435;SDS011;6790;49.520;8.504;2023-09-07T07:38:46;12.20;;;11.33;;
13435;SDS011;6790;49.520;8.504;2023-09-07T07:41:12;15.07;;;14.07;;
13435;SDS011;6790;49.520;8.504;2023-09-07T07:43:37;18.33;;;17.02;;
13435;SDS011;6790;49.520;8.504;2023-09-07T07:46:03;12.35;;;11.25;;
13435;SDS011;6790;49.520;8.504;2023-09-07T07:48:29;12.68;;;11.75;;
13435;SDS011;6790;49.520;8.504;2023-09-07T07:50:55;11.52;;;10.57;;
13435;SDS011;6790;49.520;8.504;2023-09-07T07:53:20;8.35;;;7.75;;
13435;SDS011;6790;49.520;8.504;2023-09-07T07:55:46;10.50;;;9.80;;
13435;SDS011;6790;49.520;8.504;2023-09-07T07:58:13;15.00;;;13.77;;
13435;SDS011;6790;49.520;8.504;2023-09-07T08:00:39;25.27;;;22.33;;
13435;SDS011;6790;49.520;8.504;2023-09-07T08:03:12;13.05;;;11.95;;
13435;SDS011;6790;49.520;8.504;2023-09-07T08:05:38;9.00;;;8.40;;
13435;SDS011;6790;49.520;8.504;2023-09-07T08:08:04;8.63;;;7.93;;
13435;SDS011;6790;49.520;8.504;2023-09-07T08:10:33;11.95;;;10.85;;
13435;SDS011;6790;49.520;8.504;2023-09-07T08:13:02;13.43;;;12.05;;
13435;SDS011;6790;49.520;8.504;2023-09-07T08:15:29;17.85;;;15.95;;
13435;SDS011;6790;49.520;8.504;2023-09-07T08:17:57;17.67;;;15.88;;
13435;SDS011;6790;49.520;8.504;2023-09-07T08:20:24;7.85;;;6.85;;
13435;SDS011;6790;49.520;8.504;2023-09-07T08:22:51;9.40;;;8.63;;
13435;SDS011;6790;49.520;8.504;2023-09-07T08:25:17;7.35;;;6.65;;
13435;SDS011;6790;49.520;8.504;2023-09-07T08:27:44;9.50;;;8.77;;
13435;SDS011;6790;49.520;8.504;2023-09-07T08:30:15;8.80;;;8.10;;
13435;SDS011;6790;49.520;8.504;2023-09-07T08:32:43;6.15;;;5.65;;
13435;SDS011;6790;49.520;8.504;2023-09-07T08:35:12;7.32;;;6.80;;
13435;SDS011;6790;49.520;8.504;2023-09-07T08:37:39;4.07;;;3.67;;
13435;SDS011;6790;49.520;8.504;2023-09-07T08:40:05;6.22;;;5.72;;
13435;SDS011;6790;49.520;8.504;2023-09-07T08:42:32;4.90;;;4.38;;
13435;SDS011;6790;49.520;8.504;2023-09-07T08:45:02;7.43;;;6.82;;
13435;SDS011;6790;49.520;8.504;2023-09-07T08:47:31;6.32;;;5.53;;
13435;SDS011;6790;49.520;8.504;2023-09-07T08:50:02;6.72;;;6.22;;
13435;SDS011;6790;49.520;8.504;2023-09-07T08:52:33;4.80;;;4.40;;
13435;SDS011;6790;49.520;8.504;2023-09-07T08:54:59;4.97;;;4.57;;
13435;SDS011;6790;49.520;8.504;2023-09-07T08:57:29;5.40;;;4.82;;
13435;SDS011;6790;49.520;8.504;2023-09-07T08:59:56;6.85;;;6.22;;
13435;SDS011;6790;49.520;8.504;2023-09-07T09:02:22;4.40;;;3.95;;
13435;SDS011;6790;49.520;8.504;2023-09-07T09:04:48;8.73;;;6.25;;
13435;SDS011;6790;49.520;8.504;2023-09-07T09:07:14;4.70;;;4.30;;
13435;SDS011;6790;49.520;8.504;2023-09-07T09:09:40;4.82;;;4.43;;
13435;SDS011;6790;49.520;8.504;2023-09-07T09:12:06;5.32;;;3.92;;
13435;SDS011;6790;49.520;8.504;2023-09-07T09:14:33;6.88;;;6.28;;
13435;SDS011;6790;49.520;8.504;2023-09-07T09:16:59;6.97;;;6.38;;
13435;SDS011;6790;49.520;8.504;2023-09-07T09:19:31;4.15;;;3.65;;
13435;SDS011;6790;49.520;8.504;2023-09-07T09:21:58;6.60;;;5.55;;
13435;SDS011;6790;49.520;8.504;2023-09-07T09:24:24;4.38;;;3.67;;
13435;SDS011;6790;49.520;8.504;2023-09-07T09:26:50;6.20;;;5.65;;
13435;SDS011;6790;49.520;8.504;2023-09-07T09:29:16;5.80;;;5.30;;
13435;SDS011;6790;49.520;8.504;2023-09-07T09:31:46;5.38;;;4.88;;
13435;SDS011;6790;49.520;8.504;2023-09-07T09:34:13;7.05;;;6.43;;
13435;SDS011;6790;49.520;8.504;2023-09-07T09:36:40;5.45;;;4.97;;
13435;SDS011;6790;49.520;8.504;2023-09-07T09:39:07;5.57;;;5.00;;
13435;SDS011;6790;49.520;8.504;2023-09-07T09:41:33;5.40;;;4.90;;
13435;SDS011;6790;49.520;8.504;2023-09-07T09:43:59;4.95;;;4.30;;
13435;SDS011;6790;49.520;8.504;2023-09-07T09:46:28;7.38;;;6.68;;
13435;SDS011;6790;49.520;8.504;2023-09-07T09:48:56;6.35;;;5.75;;
13435;SDS011;6790;49.520;8.504;2023-09-07T09:51:22;5.93;;;5.43;;
13435;SDS011;6790;49.520;8.504;2023-09-07T09:53:49;6.03;;;5.43;;
13435;SDS011;6790;49.520;8.504;2023-09-07T09:56:16;5.88;;;5.28;;
13435;SDS011;6790;49.520;8.504;2023-09-07T09:58:42;4.78;;;3.67;;
13435;SDS011;6790;49.520;8.504;2023-09-07T10:01:08;4.75;;;3.60;;
13435;SDS011;6790;49.520;8.504;2023-09-07T10:03:40;5.28;;;4.88;;
13435;SDS011;6790;49.520;8.504;2023-09-07T10:11:50;6.20;;;5.70;;
13435;SDS011;6790;49.520;8.504;2023-09-07T10:14:18;7.38;;;6.78;;
13435;SDS011;6790;49.520;8.504;2023-09-07T10:16:48;5.70;;;5.30;;
13435;SDS011;6790;49.520;8.504;2023-09-07T10:19:18;4.63;;;4.18;;
13435;SDS011;6790;49.520;8.504;2023-09-07T10:21:46;4.97;;;4.53;;
13435;SDS011;6790;49.520;8.504;2023-09-07T10:24:22;8.18;;;7.57;;
13435;SDS011;6790;49.520;8.504;2023-09-07T10:27:00;5.90;;;5.38;;
13435;SDS011;6790;49.520;8.504;2023-09-07T10:32:37;6.03;;;5.63;;
13435;SDS011;6790;49.520;8.504;2023-09-07T10:35:12;5.38;;;4.90;;
13435;SDS011;6790;49.520;8.504;2023-09-07T10:37:43;5.18;;;4.78;;
13435;SDS011;6790;49.520;8.504;2023-09-07T10:40:18;6.18;;;5.68;;
13435;SDS011;6790;49.520;8.504;2023-09-07T10:42:47;4.28;;;3.80;;
13435;SDS011;6790;49.520;8.504;2023-09-07T10:45:14;5.13;;;4.38;;
13435;SDS011;6790;49.520;8.504;2023-09-07T10:47:42;5.10;;;4.60;;
13435;SDS011;6790;49.520;8.504;2023-09-07T10:50:12;4.85;;;4.45;;
13435;SDS011;6790;49.520;8.504;2023-09-07T10:52:41;5.82;;;5.32;;
13435;SDS011;6790;49.520;8.504;2023-09-07T10:55:08;3.90;;;3.58;;
13435;SDS011;6790;49.520;8.504;2023-09-07T10:57:44;4.72;;;4.18;;
13435;SDS011;6790;49.520;8.504;2023-09-07T11:00:11;6.13;;;5.57;;
13435;SDS011;6790;49.520;8.504;2023-09-07T11:02:39;5.05;;;4.55;;
13435;SDS011;6790;49.520;8.504;2023-09-07T11:05:06;5.20;;;4.70;;
13435;SDS011;6790;49.520;8.504;2023-09-07T11:07:33;5.85;;;5.38;;
13435;SDS011;6790;49.520;8.504;2023-09-07T11:09:59;5.75;;;5.35;;
13435;SDS011;6790;49.520;8.504;2023-09-07T11:12:25;5.85;;;5.35;;
13435;SDS011;6790;49.520;8.504;2023-09-07T11:14:51;6.53;;;5.93;;
13435;SDS011;6790;49.520;8.504;2023-09-07T11:17:18;5.13;;;4.70;;
13435;SDS011;6790;49.520;8.504;2023-09-07T11:19:44;5.35;;;4.95;;
13435;SDS011;6790;49.520;8.504;2023-09-07T11:22:10;3.70;;;3.40;;
13435;SDS011;6790;49.520;8.504;2023-09-07T11:24:36;4.32;;;3.92;;
13435;SDS011;6790;49.520;8.504;2023-09-07T11:27:02;7.07;;;4.85;;
13435;SDS011;6790;49.520;8.504;2023-09-07T11:29:31;4.85;;;4.45;;
13435;SDS011;6790;49.520;8.504;2023-09-07T11:32:09;4.38;;;3.97;;
13435;SDS011;6790;49.520;8.504;2023-09-07T11:34:46;4.68;;;4.28;;
13435;SDS011;6790;49.520;8.504;2023-09-07T11:37:23;4.85;;;4.45;;
13435;SDS011;6790;49.520;8.504;2023-09-07T11:39:50;5.55;;;5.05;;
13435;SDS011;6790;49.520;8.504;2023-09-07T11:42:16;4.43;;;4.03;;
13435;SDS011;6790;49.520;8.504;2023-09-07T11:44:42;4.40;;;3.95;;
13435;SDS011;6790;49.520;8.504;2023-09-07T11:47:07;4.25;;;3.65;;
13435;SDS011;6790;49.520;8.504;2023-09-07T11:49:33;5.00;;;4.60;;
13435;SDS011;6790;49.520;8.504;2023-09-07T11:51:59;3.78;;;3.40;;
13435;SDS011;6790;49.520;8.504;2023-09-07T11:54:25;5.30;;;4.82;;
13435;SDS011;6790;49.520;8.504;2023-09-07T11:56:51;5.22;;;3.25;;
13435;SDS011;6790;49.520;8.504;2023-09-07T11:59:17;4.57;;;4.13;;
13435;SDS011;6790;49.520;8.504;2023-09-07T12:01:43;4.68;;;4.28;;
13435;SDS011;6790;49.520;8.504;2023-09-07T12:04:09;6.28;;;4.43;;
13435;SDS011;6790;49.520;8.504;2023-09-07T12:06:37;5.78;;;5.25;;
13435;SDS011;6790;49.520;8.504;2023-09-07T12:09:04;4.97;;;4.57;;
13435;SDS011;6790;49.520;8.504;2023-09-07T12:11:34;7.15;;;3.83;;
13435;SDS011;6790;49.520;8.504;2023-09-07T12:14:00;5.35;;;4.95;;
13435;SDS011;6790;49.520;8.504;2023-09-07T12:16:27;5.07;;;4.68;;
13435;SDS011;6790;49.520;8.504;2023-09-07T12:18:53;5.18;;;4.65;;
13435;SDS011;6790;49.520;8.504;2023-09-07T12:21:19;4.70;;;4.30;;
13435;SDS011;6790;49.520;8.504;2023-09-07T12:23:45;4.07;;;3.70;;
13435;SDS011;6790;49.520;8.504;2023-09-07T12:26:11;4.28;;;3.88;;
13435;SDS011;6790;49.520;8.504;2023-09-07T12:28:39;4.03;;;3.72;;
13435;SDS011;6790;49.520;8.504;2023-09-07T12:31:05;4.28;;;3.88;;
13435;SDS011;6790;49.520;8.504;2023-09-07T12:33:30;4.28;;;3.95;;
13435;SDS011;6790;49.520;8.504;2023-09-07T12:35:57;5.43;;;4.97;;
13435;SDS011;6790;49.520;8.504;2023-09-07T12:38:23;4.70;;;4.30;;
13435;SDS011;6790;49.520;8.504;2023-09-07T12:40:53;3.88;;;3.58;;
13435;SDS011;6790;49.520;8.504;2023-09-07T12:43:19;3.40;;;3.10;;
13435;SDS011;6790;49.520;8.504;2023-09-07T12:45:45;5.68;;;5.25;;
13435;SDS011;6790;49.520;8.504;2023-09-07T12:48:11;5.35;;;4.88;;
13435;SDS011;6790;49.520;8.504;2023-09-07T12:50:37;4.05;;;3.75;;
13435;SDS011;6790;49.520;8.504;2023-09-07T12:53:04;5.82;;;5.00;;
13435;SDS011;6790;49.520;8.504;2023-09-07T12:55:29;3.95;;;3.55;;
13435;SDS011;6790;49.520;8.504;2023-09-07T12:57:55;3.40;;;3.10;;
13435;SDS011;6790;49.520;8.504;2023-09-07T13:00:21;5.35;;;4.95;;
13435;SDS011;6790;49.520;8.504;2023-09-07T13:02:47;4.20;;;3.80;;
13435;SDS011;6790;49.520;8.504;2023-09-07T13:05:13;5.47;;;5.07;;
13435;SDS011;6790;49.520;8.504;2023-09-07T13:07:38;6.13;;;5.65;;
13435;SDS011;6790;49.520;8.504;2023-09-07T13:10:06;5.10;;;4.70;;
13435;SDS011;6790;49.520;8.504;2023-09-07T13:12:58;4.75;;;4.35;;
13435;SDS011;6790;49.520;8.504;2023-09-07T13:15:23;4.07;;;3.25;;
13435;SDS011;6790;49.520;8.504;2023-09-07T13:17:49;8.50;;;7.68;;
13435;SDS011;6790;49.520;8.504;2023-09-07T13:20:15;3.90;;;3.58;;
13435;SDS011;6790;49.520;8.504;2023-09-07T13:22:41;3.10;;;2.80;;
13435;SDS011;6790;49.520;8.504;2023-09-07T13:25:07;4.07;;;3.78;;
13435;SDS011;6790;49.520;8.504;2023-09-07T13:27:33;5.00;;;4.30;;
13435;SDS011;6790;49.520;8.504;2023-09-07T13:29:59;3.67;;;2.90;;
13435;SDS011;6790;49.520;8.504;2023-09-07T13:32:26;4.63;;;4.22;;
13435;SDS011;6790;49.520;8.504;2023-09-07T13:34:52;4.90;;;4.50;;
13435;SDS011;6790;49.520;8.504;2023-09-07T13:37:18;6.35;;;5.82;;
13435;SDS011;6790;49.520;8.504;2023-09-07T13:39:44;5.40;;;4.93;;
13435;SDS011;6790;49.520;8.504;2023-09-07T13:42:10;3.72;;;3.33;;
13435;SDS011;6790;49.520;8.504;2023-09-07T13:44:36;5.65;;;5.07;;
13435;SDS011;6790;49.520;8.504;2023-09-07T13:47:01;3.42;;;3.10;;
13435;SDS011;6790;49.520;8.504;2023-09-07T13:49:27;6.53;;;5.20;;
13435;SDS011;6790;49.520;8.504;2023-09-07T13:51:53;4.00;;;3.60;;
13435;SDS011;6790;49.520;8.504;2023-09-07T13:54:19;3.70;;;3.40;;
13435;SDS011;6790;49.520;8.504;2023-09-07T13:56:47;3.83;;;3.47;;
13435;SDS011;6790;49.520;8.504;2023-09-07T13:59:13;5.45;;;5.00;;
13435;SDS011;6790;49.520;8.504;2023-09-07T14:01:38;4.50;;;4.10;;
13435;SDS011;6790;49.520;8.504;2023-09-07T14:04:04;5.55;;;5.05;;
13435;SDS011;6790;49.520;8.504;2023-09-07T14:06:31;5.28;;;4.78;;
13435;SDS011;6790;49.520;8.504;2023-09-07T14:08:57;5.50;;;5.07;;
13435;SDS011;6790;49.520;8.504;2023-09-07T14:11:23;5.07;;;3.92;;
13435;SDS011;6790;49.520;8.504;2023-09-07T14:13:48;3.30;;;3.00;;
13435;SDS011;6790;49.520;8.504;2023-09-07T14:16:16;7.63;;;6.85;;
13435;SDS011;6790;49.520;8.504;2023-09-07T14:18:44;5.85;;;4.72;;
13435;SDS011;6790;49.520;8.504;2023-09-07T14:21:10;5.40;;;5.00;;
13435;SDS011;6790;49.520;8.504;2023-09-07T14:23:39;4.03;;;3.63;;
13435;SDS011;6790;49.520;8.504;2023-09-07T14:26:05;3.67;;;3.38;;
13435;SDS011;6790;49.520;8.504;2023-09-07T14:28:31;6.57;;;6.00;;
13435;SDS011;6790;49.520;8.504;2023-09-07T14:30:57;4.50;;;4.10;;
13435;SDS011;6790;49.520;8.504;2023-09-07T14:33:28;7.43;;;6.93;;
13435;SDS011;6790;49.520;8.504;2023-09-07T14:35:54;3.15;;;2.85;;
13435;SDS011;6790;49.520;8.504;2023-09-07T14:38:20;4.57;;;4.00;;
13435;SDS011;6790;49.520;8.504;2023-09-07T14:40:46;3.70;;;3.30;;
13435;SDS011;6790;49.520;8.504;2023-09-07T14:43:14;5.82;;;5.35;;
13435;SDS011;6790;49.520;8.504;2023-09-07T14:45:40;4.43;;;4.03;;
13435;SDS011;6790;49.520;8.504;2023-09-07T14:48:05;3.80;;;3.50;;
13435;SDS011;6790;49.520;8.504;2023-09-07T14:50:31;4.93;;;3.70;;
13435;SDS011;6790;49.520;8.504;2023-09-07T14:52:57;6.05;;;5.30;;